Time;durP1;ratioP1;P1;durP2;ratioP2;P2;SDS_P1;SDS_P2;PMS_P1;PMS_P2;Temp;Humidity;BMP_temperature;BMP_pressure;BME280_temperature;BME280_humidity;BME280_pressure;Samples;Min_cycle;Max_cycle;Signal;HPM_P1;HPM_P2
2023/09/05 06:56:06;;;;;;;5.68;3.20;;;;;;;17.26;100.00;101742.69;5080848;28;20385;-70
2023/09/05 06:58:32;;;;;;;3.72;3.10;;;;;;;17.32;100.00;101741.69;5068530;28;20036;-73
2023/09/05 07:01:03;;;;;;;7.07;3.28;;;;;;;17.40;100.00;101738.53;5066365;28;20055;-75
2023/09/05 07:03:31;;;;;;;5.10;3.30;;;;;;;17.46;100.00;101737.53;5068413;28;20419;-72
2023/09/05 07:05:57;;;;;;;5.88;3.10;;;;;;;17.54;100.00;101722.59;5082805;28;20463;-74
2023/09/05 07:08:23;;;;;;;3.13;2.80;;;;;;;17.61;100.00;101722.44;5070332;28;20027;-70
2023/09/05 07:10:48;;;;;;;4.93;3.28;;;;;;;17.68;100.00;101734.84;5068215;28;20444;-71
2023/09/05 07:13:14;;;;;;;7.43;3.30;;;;;;;17.78;100.00;101727.88;5063063;28;20025;-73
2023/09/05 07:15:39;;;;;;;3.08;2.80;;;;;;;17.83;100.00;101723.31;5077298;28;20423;-72
2023/09/05 07:18:05;;;;;;;4.25;2.97;;;;;;;17.90;100.00;101728.63;5049791;28;20060;-74
2023/09/05 07:20:31;;;;;;;8.65;3.25;;;;;;;17.98;100.00;101719.13;5049469;28;20352;-71
2023/09/05 07:22:57;;;;;;;5.82;3.00;;;;;;;18.03;100.00;101724.69;5053956;28;20016;-73
2023/09/05 07:25:22;;;;;;;5.07;2.80;;;;;;;18.11;100.00;101718.75;5067766;28;20024;-73
2023/09/05 07:27:47;;;;;;;7.50;3.00;;;;;;;18.17;100.00;101723.22;5068380;28;20028;-72
2023/09/05 07:30:14;;;;;;;3.92;2.90;;;;;;;18.29;100.00;101723.09;5059338;28;20071;-74
2023/09/05 07:32:39;;;;;;;3.20;2.90;;;;;;;18.33;100.00;101726.16;5051888;28;20115;-73
2023/09/05 07:35:05;;;;;;;6.43;2.83;;;;;;;18.37;100.00;101717.19;5047729;28;20116;-73
2023/09/05 07:37:30;;;;;;;4.90;2.83;;;;;;;18.47;100.00;101708.22;5046604;28;20379;-73
2023/09/05 07:39:55;;;;;;;5.80;2.90;;;;;;;18.53;100.00;101704.44;5059078;28;20032;-71
2023/09/05 07:42:21;;;;;;;7.28;2.95;;;;;;;18.63;100.00;101711.13;5067919;28;20528;-73
2023/09/05 07:44:46;;;;;;;5.45;2.60;;;;;;;18.73;100.00;101703.00;5067622;28;20525;-73
2023/09/05 07:47:11;;;;;;;2.92;2.65;;;;;;;18.84;100.00;101699.28;5048079;28;20025;-74
2023/09/05 07:49:38;;;;;;;4.07;2.30;;;;;;;18.89;100.00;101713.06;5054264;28;20135;-73
2023/09/05 07:52:04;;;;;;;2.95;2.33;;;;;;;18.95;100.00;101712.03;5056545;28;20056;-70
2023/09/05 07:54:29;;;;;;;5.10;3.00;;;;;;;19.00;100.00;101718.66;5062667;28;20145;-73
2023/09/05 07:56:55;;;;;;;4.07;2.60;;;;;;;19.08;100.00;101712.69;5052911;28;20060;-71
2023/09/05 07:59:20;;;;;;;4.15;2.50;;;;;;;19.11;100.00;101723.97;5047568;28;20111;-74
2023/09/05 08:01:45;;;;;;;3.22;2.50;;;;;;;19.24;100.00;101722.69;5046385;28;20109;-72
2023/09/05 08:04:11;;;;;;;4.53;2.63;;;;;;;19.26;100.00;101720.53;5048795;28;20063;-72
2023/09/05 08:06:36;;;;;;;4.07;2.25;;;;;;;19.34;100.00;101727.44;5038652;28;20110;-72
2023/09/05 08:09:02;;;;;;;4.03;2.47;;;;;;;19.49;100.00;101732.22;5033174;28;20507;-73
2023/09/05 08:11:27;;;;;;;3.10;2.60;;;;;;;19.51;100.00;101729.22;5033361;28;20022;-72
2023/09/05 08:13:52;;;;;;;4.05;2.50;;;;;;;19.61;100.00;101726.53;5033481;28;20377;-74
2023/09/05 08:16:18;;;;;;;5.20;2.60;;;;;;;19.68;100.00;101726.31;5035108;28;20032;-72
2023/09/05 08:18:44;;;;;;;6.03;2.78;;;;;;;19.72;100.00;101721.94;5050932;28;20026;-72
2023/09/05 08:21:09;;;;;;;6.90;2.90;;;;;;;19.85;100.00;101721.47;5032385;28;20116;-73
2023/09/05 08:23:34;;;;;;;5.50;2.35;;;;;;;19.96;100.00;101727.88;5029174;28;20040;-73
2023/09/05 08:26:00;;;;;;;3.58;2.50;;;;;;;20.04;100.00;101723.78;5035201;28;20097;-73
2023/09/05 08:28:26;;;;;;;5.47;2.58;;;;;;;20.18;100.00;101727.69;5034918;28;20021;-73
2023/09/05 08:30:59;;;;;;;3.03;2.58;;;;;;;20.21;100.00;101729.06;5032509;28;20040;-73
2023/09/05 08:33:24;;;;;;;3.10;2.20;;;;;;;20.18;100.00;101725.78;5050236;28;20112;-73
2023/09/05 08:35:49;;;;;;;4.85;2.80;;;;;;;20.21;100.00;101718.91;5033602;28;20022;-73
2023/09/05 08:38:15;;;;;;;3.97;2.42;;;;;;;20.35;100.00;101716.47;5034957;28;20056;-73
2023/09/05 08:40:45;;;;;;;4.07;2.70;;;;;;;20.32;100.00;101720.59;5033293;28;20108;-73
2023/09/05 08:43:10;;;;;;;8.25;2.63;;;;;;;20.48;95.93;101712.41;5034902;28;20056;-72
2023/09/05 08:45:36;;;;;;;6.90;2.58;;;;;;;20.75;100.00;101722.41;5034861;28;20079;-72
2023/09/05 08:48:03;;;;;;;7.07;2.25;;;;;;;20.73;96.94;101717.16;5034857;28;20029;-72
2023/09/05 08:50:33;;;;;;;4.22;2.40;;;;;;;20.86;100.00;101718.53;5033023;28;20037;-73
2023/09/05 08:53:05;;;;;;;4.00;2.60;;;;;;;20.91;98.32;101718.56;5034739;28;20026;-73
2023/09/05 08:55:31;;;;;;;4.40;2.40;;;;;;;21.11;95.35;101716.94;5033856;28;20571;-73
2023/09/05 08:57:59;;;;;;;4.30;2.40;;;;;;;21.09;90.07;101719.09;5034582;28;20096;-72
2023/09/05 09:00:24;;;;;;;4.07;2.33;;;;;;;21.09;91.17;101722.72;5029752;28;20495;-71
2023/09/05 09:02:50;;;;;;;4.43;2.33;;;;;;;21.15;93.80;101723.50;5045195;28;20026;-72
2023/09/05 09:05:15;;;;;;;4.55;2.35;;;;;;;21.20;93.69;101712.53;5044407;28;20033;-72
2023/09/05 09:07:40;;;;;;;5.40;2.42;;;;;;;21.18;91.85;101714.69;5034415;28;20057;-72
2023/09/05 09:10:19;;;;;;;4.32;2.30;;;;;;;21.33;93.18;101717.47;5033629;28;20092;-71
2023/09/05 09:12:45;;;;;;;2.70;2.00;;;;;;;21.41;92.22;101721.59;5032278;28;20040;-72
2023/09/05 09:15:12;;;;;;;4.80;2.55;;;;;;;21.52;96.41;101726.00;5033212;28;20029;-71
2023/09/05 09:17:41;;;;;;;4.72;2.47;;;;;;;21.59;91.08;101728.47;5035274;28;20025;-71
2023/09/05 09:20:12;;;;;;;4.18;2.50;;;;;;;21.63;92.49;101726.78;5051745;28;20033;-73
2023/09/05 09:22:41;;;;;;;3.87;2.37;;;;;;;21.69;94.56;101733.13;5033493;28;20115;-72
2023/09/05 09:25:12;;;;;;;6.38;2.65;;;;;;;21.80;87.75;101732.03;5048205;28;20087;-71
2023/09/05 09:27:39;;;;;;;4.85;2.63;;;;;;;21.81;87.35;101741.09;5033793;28;20033;-72
2023/09/05 09:30:08;;;;;;;9.55;2.50;;;;;;;21.89;92.63;101740.50;5033058;28;20036;-71
2023/09/05 09:32:37;;;;;;;4.35;2.05;;;;;;;21.94;87.84;101737.75;5040537;28;20025;-71
2023/09/05 09:35:06;;;;;;;7.38;2.80;;;;;;;21.98;86.15;101738.81;5033977;28;20017;-71
2023/09/05 09:37:33;;;;;;;6.30;2.33;;;;;;;22.12;91.11;101745.41;5033494;28;20083;-71
2023/09/05 09:40:00;;;;;;;6.95;2.70;;;;;;;22.17;90.14;101735.47;5033721;28;20165;-71
2023/09/05 09:42:27;;;;;;;4.40;2.50;;;;;;;22.19;88.66;101745.09;5031365;28;20032;-71
2023/09/05 09:44:52;;;;;;;5.07;2.20;;;;;;;22.22;83.99;101732.69;5033274;28;20457;-70
2023/09/05 09:47:18;;;;;;;5.03;2.40;;;;;;;22.28;80.23;101737.91;5033606;28;20063;-71
2023/09/05 09:49:47;;;;;;;5.28;2.38;;;;;;;22.41;83.13;101733.72;5033357;28;20104;-70
2023/09/05 09:52:15;;;;;;;5.18;2.13;;;;;;;22.47;79.24;101740.03;5030422;28;20032;-71
2023/09/05 09:54:44;;;;;;;5.07;2.25;;;;;;;22.61;81.28;101740.25;5033113;28;20111;-71
2023/09/05 09:57:13;;;;;;;7.82;2.10;;;;;;;22.65;83.45;101736.63;5033212;28;20396;-71
2023/09/05 09:59:48;;;;;;;4.82;2.40;;;;;;;22.67;86.81;101739.09;5033455;28;20029;-71
2023/09/05 10:02:15;;;;;;;6.13;2.50;;;;;;;22.73;83.57;101743.47;5030046;28;20037;-71
2023/09/05 10:04:41;;;;;;;7.68;2.13;;;;;;;22.85;77.21;101737.59;5033048;28;20029;-72
2023/09/05 10:07:11;;;;;;;8.70;2.10;;;;;;;22.94;81.79;101741.41;5032821;28;20033;-71
2023/09/05 10:09:37;;;;;;;3.75;2.10;;;;;;;22.96;74.10;101743.88;5033006;28;20030;-70
2023/09/05 10:12:05;;;;;;;4.32;2.25;;;;;;;23.05;73.71;101733.84;5032219;28;20087;-70
2023/09/05 10:14:31;;;;;;;7.15;2.40;;;;;;;23.06;76.42;101723.66;5033116;28;20057;-70
2023/09/05 10:16:57;;;;;;;3.55;2.15;;;;;;;23.22;78.31;101724.38;5033481;28;20025;-72
2023/09/05 10:19:24;;;;;;;4.70;2.33;;;;;;;23.22;78.89;101716.09;5032994;28;20032;-70
2023/09/05 10:21:52;;;;;;;5.07;2.10;;;;;;;23.32;75.24;101722.34;5030499;28;20461;-70
2023/09/05 10:24:18;;;;;;;6.97;2.45;;;;;;;23.36;72.29;101726.16;5033043;28;20412;-70
2023/09/05 10:26:43;;;;;;;3.03;2.20;;;;;;;23.33;72.31;101717.66;5032470;28;20059;-71
2023/09/05 10:29:32;;;;;;;5.40;2.10;;;;;;;23.40;76.01;101726.44;5033016;28;20364;-71
2023/09/05 10:31:58;;;;;;;6.20;2.20;;;;;;;23.56;72.96;101716.03;5031494;28;20048;-70
2023/09/05 10:34:50;;;;;;;5.78;2.08;;;;;;;23.58;74.92;101716.56;5032774;28;20029;-70
2023/09/05 10:37:19;;;;;;;3.40;2.03;;;;;;;23.74;69.89;101713.66;5032257;28;20041;-71
2023/09/05 10:39:46;;;;;;;3.45;2.00;;;;;;;23.74;72.91;101711.69;5032568;28;20029;-71
2023/09/05 10:42:12;;;;;;;8.77;2.22;;;;;;;23.83;68.67;101715.47;5031780;28;20025;-70
2023/09/05 10:44:47;;;;;;;3.22;2.10;;;;;;;23.93;68.31;101722.88;5032509;28;20025;-70
2023/09/05 10:47:27;;;;;;;4.07;2.20;;;;;;;24.12;67.45;101720.13;5032674;28;20070;-70
2023/09/05 10:50:07;;;;;;;2.35;1.63;;;;;;;24.18;67.44;101713.41;5032452;28;20059;-70
2023/09/05 10:52:33;;;;;;;6.05;2.00;;;;;;;24.26;66.12;101711.09;5031649;28;20033;-71
2023/09/05 10:55:31;;;;;;;6.00;2.17;;;;;;;24.32;67.03;101705.22;5031071;28;20067;-71
2023/09/05 10:57:57;;;;;;;2.25;1.95;;;;;;;24.35;64.14;101709.31;5032338;28;20033;-70
2023/09/05 11:00:26;;;;;;;5.22;2.35;;;;;;;24.44;63.33;101702.00;5031054;28;20079;-71
2023/09/05 11:02:54;;;;;;;2.58;1.80;;;;;;;24.47;64.32;101701.41;5027563;28;20017;-71
2023/09/05 11:05:20;;;;;;;2.92;1.88;;;;;;;24.51;64.69;101696.91;5034304;28;20032;-72
2023/09/05 11:07:50;;;;;;;4.18;1.88;;;;;;;24.59;62.44;101699.06;5043931;28;20033;-68
2023/09/05 11:10:24;;;;;;;4.57;2.00;;;;;;;24.74;64.65;101688.84;5040472;28;20021;-70
2023/09/05 11:12:50;;;;;;;3.70;1.92;;;;;;;24.97;62.96;101700.13;5051273;28;20081;-73
2023/09/05 11:15:28;;;;;;;3.65;2.10;;;;;;;24.98;64.59;101693.47;5041425;28;20029;-75
2023/09/05 11:18:05;;;;;;;12.40;2.92;;;;;;;25.08;60.39;101693.31;5030094;28;20083;-72
2023/09/05 11:20:39;;;;;;;13.43;2.42;;;;;;;25.22;60.56;101698.88;5029293;28;20021;-72
2023/09/05 11:23:16;;;;;;;15.48;3.00;;;;;;;25.38;61.21;101702.19;5012741;28;20026;-72
2023/09/05 11:25:49;;;;;;;3.40;1.77;;;;;;;25.48;58.14;101696.47;5018477;28;20034;-72
2023/09/05 11:28:15;;;;;;;4.43;1.70;;;;;;;25.72;56.85;101695.47;5030941;28;20350;-72
2023/09/05 11:30:43;;;;;;;7.20;1.88;;;;;;;25.68;60.14;101688.91;5031752;28;20128;-75
2023/09/05 11:33:10;;;;;;;4.63;2.10;;;;;;;25.71;59.51;101694.66;5031562;28;20041;-73
2023/09/05 11:35:35;;;;;;;3.50;1.92;;;;;;;25.75;56.60;101690.13;5027159;28;20064;-74
2023/09/05 11:38:03;;;;;;;3.20;1.95;;;;;;;25.83;58.47;101686.66;5020592;28;20109;-73
2023/09/05 11:40:30;;;;;;;3.50;1.83;;;;;;;25.96;56.33;101684.19;5042447;28;20091;-75
2023/09/05 11:43:06;;;;;;;4.97;2.38;;;;;;;26.10;56.22;101678.63;5035822;28;20029;-73
2023/09/05 11:45:33;;;;;;;3.10;2.20;;;;;;;26.04;54.16;101675.16;5035932;28;20052;-72
2023/09/05 11:48:00;;;;;;;5.70;1.90;;;;;;;26.11;56.60;101674.75;5035986;28;20461;-73
2023/09/05 11:50:27;;;;;;;4.78;1.90;;;;;;;26.23;59.67;101672.25;5033824;28;20022;-72
2023/09/05 11:52:53;;;;;;;4.88;1.85;;;;;;;26.40;54.98;101674.34;5034301;28;20036;-72
2023/09/05 11:55:23;;;;;;;4.68;2.00;;;;;;;26.47;55.22;101665.63;5035683;28;20559;-73
2023/09/05 11:57:52;;;;;;;2.72;1.95;;;;;;;26.41;53.95;101669.66;5035655;28;20025;-75
2023/09/05 12:00:23;;;;;;;2.38;1.80;;;;;;;26.60;58.43;101659.19;5034062;28;20030;-74
2023/09/05 12:02:49;;;;;;;3.08;1.70;;;;;;;26.53;53.94;101658.81;5033670;28;20464;-74
2023/09/05 12:05:17;;;;;;;6.45;1.90;;;;;;;26.59;53.67;101653.97;5035341;28;20354;-73
2023/09/05 12:07:50;;;;;;;2.45;2.10;;;;;;;26.75;55.92;101651.63;5035293;28;20022;-73
2023/09/05 12:10:16;;;;;;;3.03;1.77;;;;;;;26.74;53.37;101653.59;5033060;28;20532;-74
2023/09/05 12:12:55;;;;;;;3.63;2.05;;;;;;;26.87;53.68;101651.88;5035319;28;20025;-75
2023/09/05 12:15:31;;;;;;;4.30;1.63;;;;;;;26.86;53.73;101653.84;5033833;28;20117;-76
2023/09/05 12:17:59;;;;;;;5.95;1.90;;;;;;;27.01;55.22;101651.78;5035503;28;20021;-75
2023/09/05 12:20:28;;;;;;;6.05;1.80;;;;;;;27.17;53.22;101646.66;5033838;28;20021;-75
2023/09/05 12:22:53;;;;;;;2.55;1.45;;;;;;;27.31;52.32;101629.91;5049920;28;20029;-76
2023/09/05 12:25:21;;;;;;;2.38;1.60;;;;;;;27.37;52.17;101635.03;5054175;28;20506;-75
2023/09/05 12:27:49;;;;;;;5.68;1.52;;;;;;;27.34;52.57;101638.47;5053879;28;20028;-74
2023/09/05 12:30:24;;;;;;;5.90;1.60;;;;;;;27.53;51.98;101634.59;5040693;28;20479;-75
2023/09/05 12:32:49;;;;;;;3.95;2.05;;;;;;;27.53;51.63;101638.19;5032899;28;20665;-74
2023/09/05 12:35:15;;;;;;;7.00;2.03;;;;;;;27.61;53.83;101636.56;5035013;28;20061;-75
2023/09/05 12:37:40;;;;;;;3.78;1.83;;;;;;;27.62;52.76;101646.56;5034664;28;20029;-75
2023/09/05 12:40:06;;;;;;;3.40;1.80;;;;;;;27.71;51.98;101635.47;5042212;28;20107;-72
2023/09/05 12:42:32;;;;;;;4.78;1.80;;;;;;;27.70;51.08;101640.19;5055201;28;20028;-74
2023/09/05 12:44:57;;;;;;;4.95;1.80;;;;;;;27.82;52.77;101627.66;5055601;28;20029;-74
2023/09/05 12:47:23;;;;;;;3.30;1.88;;;;;;;27.74;50.66;101626.47;5058002;28;20036;-73
2023/09/05 12:49:50;;;;;;;2.80;1.65;;;;;;;27.79;51.92;101622.72;5046214;28;20056;-73
2023/09/05 12:52:15;;;;;;;4.25;1.95;;;;;;;27.91;50.72;101615.38;5033208;28;20063;-74
2023/09/05 12:54:40;;;;;;;5.90;2.05;;;;;;;27.99;50.89;101619.38;5034835;28;20666;-74
2023/09/05 12:57:06;;;;;;;6.72;1.80;;;;;;;28.06;49.94;101614.13;5034837;28;20484;-73
2023/09/05 12:59:31;;;;;;;5.00;2.10;;;;;;;28.09;51.76;101621.81;5037929;28;20020;-75
2023/09/05 13:01:56;;;;;;;6.38;2.00;;;;;;;28.13;51.25;101616.44;5052131;28;20032;-74
2023/09/05 13:04:22;;;;;;;4.93;2.00;;;;;;;28.15;50.01;101613.31;5054373;28;20502;-72
2023/09/05 13:06:47;;;;;;;4.40;1.83;;;;;;;28.13;50.06;101615.59;5039669;28;20025;-74
2023/09/05 13:09:17;;;;;;;8.07;1.88;;;;;;;28.15;49.18;101616.09;5033392;28;20108;-74
2023/09/05 13:11:47;;;;;;;2.97;1.95;;;;;;;28.17;49.76;101609.03;5032200;28;20125;-74
2023/09/05 13:14:12;;;;;;;6.05;1.83;;;;;;;28.16;49.86;101613.00;5033232;28;20090;-73
2023/09/05 13:16:38;;;;;;;5.78;1.85;;;;;;;28.29;50.62;101606.44;5034104;28;20528;-76
2023/09/05 13:19:03;;;;;;;3.92;1.80;;;;;;;28.37;48.92;101607.59;5033270;28;20079;-72
2023/09/05 13:21:30;;;;;;;5.60;2.00;;;;;;;28.21;48.06;101610.03;5033144;28;20025;-75
2023/09/05 13:23:55;;;;;;;3.42;1.85;;;;;;;28.26;48.33;101601.53;5032814;28;20468;-73
2023/09/05 13:26:20;;;;;;;3.78;1.95;;;;;;;28.41;49.34;101597.44;5034245;28;20028;-73
2023/09/05 13:28:46;;;;;;;3.35;1.80;;;;;;;28.43;48.20;101600.72;5033868;28;20029;-72
2023/09/05 13:31:11;;;;;;;6.68;1.90;;;;;;;28.45;47.84;101601.19;5034138;28;20033;-73
2023/09/05 13:33:38;;;;;;;7.57;2.03;;;;;;;28.37;49.01;101596.47;5054008;28;20036;-72
2023/09/05 13:36:03;;;;;;;5.32;1.80;;;;;;;28.54;48.55;101600.38;5053798;28;20033;-74
2023/09/05 13:38:29;;;;;;;5.43;1.90;;;;;;;28.54;49.58;101605.94;5054032;28;20071;-76
2023/09/05 13:40:55;;;;;;;5.30;1.60;;;;;;;28.47;50.26;101603.63;5038856;28;20086;-73
2023/09/05 13:43:20;;;;;;;7.05;2.00;;;;;;;28.53;48.48;101602.31;5033871;28;20025;-75
2023/09/05 13:45:46;;;;;;;7.95;1.83;;;;;;;28.52;47.85;101599.88;5031621;28;20457;-73
2023/09/05 13:48:11;;;;;;;6.47;1.83;;;;;;;28.51;48.56;101596.28;5046720;28;20096;-72
2023/09/05 13:50:36;;;;;;;4.68;1.80;;;;;;;28.55;47.83;101591.69;5060212;28;20117;-75
2023/09/05 13:53:01;;;;;;;5.45;1.80;;;;;;;28.62;49.57;101596.78;5037354;28;20083;-73
2023/09/05 13:55:27;;;;;;;3.10;1.65;;;;;;;28.77;47.35;101599.03;5030755;28;20038;-75
2023/09/05 13:57:52;;;;;;;2.47;1.80;;;;;;;28.81;47.57;101597.22;5029734;28;20369;-73
2023/09/05 14:00:21;;;;;;;5.95;1.67;;;;;;;28.84;46.93;101597.69;5023922;28;20043;-72
2023/09/05 14:02:47;;;;;;;5.00;1.50;;;;;;;28.78;47.39;101594.31;5022761;28;20034;-73
2023/09/05 14:05:13;;;;;;;5.15;1.90;;;;;;;28.78;47.89;101595.09;5019240;28;20030;-73
2023/09/05 14:07:40;;;;;;;4.10;1.80;;;;;;;28.83;48.86;101587.72;5019215;28;20025;-73
2023/09/05 14:10:10;;;;;;;2.28;1.73;;;;;;;28.80;50.27;101589.19;5016600;28;20508;-73
